createdAt,value
2019-05-12T00:00:09.205Z,15.70
2019-05-12T00:02:39.715Z,13.93
2019-05-12T00:05:09.015Z,16.90
2019-05-12T00:07:38.158Z,13.93
2019-05-12T00:10:08.634Z,12.77
2019-05-12T00:12:38.528Z,13.97
2019-05-12T00:15:08.391Z,16.07
2019-05-12T00:17:38.710Z,13.83
2019-05-12T00:20:08.575Z,16.90
2019-05-12T00:22:38.816Z,13.47
2019-05-12T00:25:08.894Z,15.93
2019-05-12T00:27:38.758Z,14.00
2019-05-12T00:30:10.480Z,16.83
2019-05-12T00:32:39.158Z,15.20
2019-05-12T00:35:08.109Z,13.77
2019-05-12T00:37:38.105Z,14.53
2019-05-12T00:40:08.840Z,14.77
2019-05-12T00:42:38.172Z,17.70
2019-05-12T00:45:08.218Z,14.00
2019-05-12T00:47:38.899Z,14.40
2019-05-12T00:50:08.134Z,19.40
2019-05-12T00:52:38.613Z,18.40
2019-05-12T00:55:07.980Z,17.23
2019-05-12T00:57:38.345Z,16.00
2019-05-12T01:00:10.329Z,13.63
2019-05-12T01:02:38.815Z,15.63
2019-05-12T01:05:08.670Z,16.57
2019-05-12T01:07:38.309Z,16.27
2019-05-12T01:10:08.705Z,12.17
2019-05-12T01:12:38.220Z,14.87
2019-05-12T01:15:08.372Z,13.63
2019-05-12T01:17:40.078Z,16.53
2019-05-12T01:20:09.108Z,16.63
2019-05-12T01:22:38.268Z,18.50
2019-05-12T01:25:08.550Z,15.17
2019-05-12T01:27:38.128Z,14.33
2019-05-12T01:30:08.784Z,14.13
2019-05-12T01:32:39.053Z,15.07
2019-05-12T01:35:08.910Z,18.30
2019-05-12T01:37:38.366Z,14.33
2019-05-12T01:40:09.262Z,17.73
2019-05-12T01:42:38.374Z,12.77
2019-05-12T01:45:09.203Z,13.20
2019-05-12T01:47:38.372Z,12.70
2019-05-12T01:50:09.034Z,12.00
2019-05-12T01:52:38.602Z,13.53
2019-05-12T01:55:08.334Z,16.50
2019-05-12T01:57:38.605Z,14.00
2019-05-12T02:00:12.203Z,11.67
2019-05-12T02:02:40.711Z,14.67
2019-05-12T02:05:09.754Z,17.00
2019-05-12T02:07:40.158Z,17.83
2019-05-12T02:10:09.499Z,15.77
2019-05-12T02:12:38.432Z,10.93
2019-05-12T02:15:08.207Z,17.00
2019-05-12T02:17:38.928Z,16.27
2019-05-12T02:20:11.726Z,16.33
2019-05-12T02:22:40.150Z,13.73
2019-05-12T02:25:09.294Z,15.53
2019-05-12T02:27:38.297Z,12.30
2019-05-12T02:30:09.705Z,10.53
2019-05-12T02:32:48.304Z,11.87
2019-05-12T02:35:09.350Z,10.83
2019-05-12T02:37:37.837Z,13.97
2019-05-12T02:40:11.174Z,12.33
2019-05-12T02:42:39.579Z,11.83
2019-05-12T02:45:10.174Z,11.93
2019-05-12T02:47:38.867Z,11.57
2019-05-12T02:50:08.967Z,10.63
2019-05-12T02:52:37.667Z,9.43
2019-05-12T02:55:06.830Z,10.77
2019-05-12T02:57:36.068Z,14.43
2019-05-12T03:00:07.308Z,11.33
2019-05-12T03:02:36.413Z,11.37
2019-05-12T03:05:07.225Z,12.30
2019-05-12T03:07:35.908Z,11.27
2019-05-12T03:10:06.951Z,10.77
2019-05-12T03:12:35.547Z,13.10
2019-05-12T03:15:05.765Z,14.20
2019-05-12T03:17:35.528Z,13.67
2019-05-12T03:20:06.247Z,12.63
2019-05-12T03:22:35.418Z,12.40
2019-05-12T03:25:15.535Z,13.20
2019-05-12T03:27:35.103Z,11.97
2019-05-12T03:30:11.443Z,13.37
2019-05-12T03:32:37.928Z,13.37
2019-05-12T03:35:08.815Z,10.10
2019-05-12T03:37:36.635Z,12.77
2019-05-12T03:40:07.104Z,16.50
2019-05-12T03:42:35.950Z,11.10
2019-05-12T03:45:05.097Z,10.93
2019-05-12T03:47:35.532Z,12.73
2019-05-12T03:50:05.126Z,10.13
2019-05-12T03:52:35.037Z,12.13
2019-05-12T03:55:05.754Z,10.03
2019-05-12T03:57:34.832Z,12.00
2019-05-12T04:00:05.843Z,9.37
2019-05-12T04:02:34.317Z,11.77
2019-05-12T04:05:05.226Z,8.77
2019-05-12T04:07:34.523Z,12.23
2019-05-12T04:10:05.306Z,8.00
2019-05-12T04:12:34.780Z,10.90
2019-05-12T04:15:05.196Z,9.90
2019-05-12T04:17:35.027Z,11.40
2019-05-12T04:20:05.184Z,9.20
2019-05-12T04:22:35.226Z,9.30
2019-05-12T04:25:06.079Z,14.57
2019-05-12T04:27:35.104Z,8.33
2019-05-12T04:30:05.477Z,10.90
2019-05-12T04:32:35.694Z,9.67
2019-05-12T04:35:07.370Z,11.73
2019-05-12T04:37:37.705Z,10.87
2019-05-12T04:40:06.881Z,11.37
2019-05-12T04:42:35.332Z,9.30
2019-05-12T04:45:05.239Z,12.00
2019-05-12T04:47:35.106Z,15.40
2019-05-12T04:50:05.730Z,9.30
2019-05-12T04:52:35.251Z,9.20
2019-05-12T04:55:05.171Z,8.87
2019-05-12T04:57:34.635Z,8.20
2019-05-12T05:00:05.476Z,11.67
2019-05-12T05:02:36.399Z,10.07
2019-05-12T05:05:06.857Z,8.03
2019-05-12T05:07:36.063Z,8.83
2019-05-12T05:10:05.452Z,9.00
2019-05-12T05:12:34.577Z,11.83
2019-05-12T05:15:05.422Z,8.93
2019-05-12T05:17:34.785Z,9.00
2019-05-12T05:20:04.665Z,11.00
2019-05-12T05:22:33.399Z,10.40
2019-05-12T05:25:04.103Z,8.60
2019-05-12T05:27:34.066Z,9.57
2019-05-12T05:30:04.045Z,10.70
2019-05-12T05:32:33.972Z,10.40
2019-05-12T05:35:03.984Z,8.57
2019-05-12T05:37:39.551Z,9.03
2019-05-12T05:40:04.042Z,8.80
2019-05-12T05:42:35.371Z,9.23
2019-05-12T05:45:04.887Z,10.83
2019-05-12T05:47:33.741Z,12.97
2019-05-12T05:50:04.604Z,9.77
2019-05-12T05:52:34.204Z,7.73
2019-05-12T05:55:05.811Z,11.13
2019-05-12T05:57:33.642Z,8.57
2019-05-12T06:00:09.438Z,10.90
2019-05-12T06:02:39.706Z,7.83
2019-05-12T06:05:05.176Z,9.23
2019-05-12T06:07:38.747Z,9.23
2019-05-12T06:10:06.386Z,11.37
2019-05-12T06:12:34.794Z,9.80
2019-05-12T06:15:04.227Z,7.80
2019-05-12T06:17:34.148Z,7.23
2019-05-12T06:20:04.354Z,11.23
2019-05-12T06:22:34.365Z,7.87
2019-05-12T06:25:05.024Z,10.13
2019-05-12T06:27:35.922Z,14.37
2019-05-12T06:30:06.362Z,10.30
2019-05-12T06:32:34.928Z,7.37
2019-05-12T06:35:04.851Z,7.90
2019-05-12T06:37:33.995Z,8.07
2019-05-12T06:40:03.596Z,12.67
2019-05-12T06:42:34.133Z,6.63
2019-05-12T06:45:03.785Z,6.27
2019-05-12T06:47:34.358Z,9.87
2019-05-12T06:50:03.951Z,8.17
2019-05-12T06:52:33.722Z,8.10
2019-05-12T06:55:04.085Z,5.90
2019-05-12T06:57:34.273Z,21.93
2019-05-12T07:00:04.554Z,6.80
2019-05-12T07:02:36.963Z,7.17
2019-05-12T07:05:04.389Z,8.93
2019-05-12T07:07:41.737Z,9.50
2019-05-12T07:10:11.607Z,7.43
2019-05-12T07:12:43.555Z,7.83
2019-05-12T07:15:06.274Z,7.27
2019-05-12T07:17:43.836Z,7.47
2019-05-12T07:20:09.565Z,7.17
2019-05-12T07:22:44.225Z,6.97
2019-05-12T07:25:08.537Z,6.63
2019-05-12T07:27:39.698Z,8.77
2019-05-12T07:30:07.659Z,7.60
2019-05-12T07:32:36.089Z,8.97
2019-05-12T07:35:06.664Z,7.37
2019-05-12T07:37:35.644Z,6.20
2019-05-12T07:40:06.039Z,7.27
2019-05-12T07:42:39.411Z,17.60
2019-05-12T07:45:11.497Z,11.30
2019-05-12T07:47:37.136Z,8.57
2019-05-12T07:50:09.757Z,10.53
2019-05-12T07:52:38.449Z,12.47
2019-05-12T07:55:07.238Z,7.77
2019-05-12T07:57:50.684Z,11.60
2019-05-12T08:00:11.357Z,9.73
2019-05-12T08:02:39.729Z,8.90
2019-05-12T08:05:11.137Z,10.00
2019-05-12T08:07:39.333Z,10.40
2019-05-12T08:10:15.783Z,12.97
2019-05-12T08:12:38.357Z,8.20
2019-05-12T08:15:10.890Z,9.03
2019-05-12T08:17:39.309Z,11.33
2019-05-12T08:20:08.851Z,13.13
2019-05-12T08:22:37.289Z,9.10
2019-05-12T08:25:07.359Z,8.53
2019-05-12T08:27:39.191Z,7.63
2019-05-12T08:30:06.749Z,8.97
2019-05-12T08:32:35.171Z,14.23
2019-05-12T08:35:05.036Z,8.40
2019-05-12T08:37:33.583Z,11.80
2019-05-12T08:40:05.984Z,7.60
2019-05-12T08:42:34.316Z,8.70
2019-05-12T08:45:04.534Z,11.67
2019-05-12T08:47:35.586Z,8.53
2019-05-12T08:50:04.827Z,9.77
2019-05-12T08:52:37.231Z,11.17
2019-05-12T08:55:04.259Z,9.57
2019-05-12T08:57:40.835Z,7.50
2019-05-12T09:00:08.458Z,11.87
2019-05-12T09:02:34.509Z,8.83
2019-05-12T09:05:04.682Z,7.07
2019-05-12T09:07:35.781Z,16.50
2019-05-12T09:10:04.308Z,8.47
2019-05-12T09:12:33.793Z,9.67
2019-05-12T09:15:04.280Z,6.53
2019-05-12T09:17:34.721Z,9.37
2019-05-12T09:20:08.180Z,13.77
2019-05-12T09:22:34.298Z,7.83
2019-05-12T09:25:06.247Z,8.00
2019-05-12T09:27:33.602Z,7.43
2019-05-12T09:30:05.360Z,5.90
2019-05-12T09:32:33.934Z,9.63
2019-05-12T09:35:03.980Z,6.37
2019-05-12T09:37:38.766Z,9.87
2019-05-12T09:40:04.632Z,7.47
2019-05-12T09:42:33.513Z,8.60
2019-05-12T09:45:06.126Z,9.93
2019-05-12T09:47:34.245Z,9.30
2019-05-12T09:50:04.359Z,6.77
2019-05-12T09:52:33.332Z,9.00
2019-05-12T09:55:04.071Z,9.37
2019-05-12T09:57:40.410Z,9.47
2019-05-12T10:00:04.479Z,7.07
2019-05-12T10:02:32.445Z,8.27
2019-05-12T10:05:01.138Z,10.00
2019-05-12T10:07:30.193Z,8.23
2019-05-12T10:09:59.162Z,9.03
2019-05-12T10:12:29.804Z,12.17
2019-05-12T10:14:58.225Z,9.53
2019-05-12T10:17:30.152Z,9.03
2019-05-12T10:19:58.240Z,7.23
2019-05-12T10:22:29.988Z,7.20
2019-05-12T10:24:58.880Z,9.13
2019-05-12T10:27:31.878Z,8.13
2019-05-12T10:30:05.629Z,7.20
2019-05-12T10:32:28.087Z,6.60
2019-05-12T10:34:56.599Z,7.23
2019-05-12T10:37:29.219Z,6.43
2019-05-12T10:39:55.210Z,10.03
2019-05-12T10:42:24.348Z,5.70
2019-05-12T10:44:56.715Z,9.10
2019-05-12T10:47:25.227Z,6.43
2019-05-12T10:49:53.952Z,8.97
2019-05-12T10:52:24.422Z,9.40
2019-05-12T10:54:53.816Z,5.30
2019-05-12T10:57:22.351Z,6.37
2019-05-12T10:59:50.807Z,5.20
2019-05-12T11:02:20.593Z,4.87
2019-05-12T11:04:49.437Z,9.17
2019-05-12T11:07:17.891Z,5.83
2019-05-12T11:09:46.483Z,8.50
2019-05-12T11:12:19.028Z,8.67
2019-05-12T11:14:45.331Z,9.83
2019-05-12T11:17:14.399Z,6.10
2019-05-12T11:19:47.169Z,5.93
2019-05-12T11:22:15.519Z,7.63
2019-05-12T11:24:44.545Z,7.33
2019-05-12T11:27:13.502Z,7.03
2019-05-12T11:29:48.544Z,6.97
2019-05-12T11:32:14.015Z,9.73
2019-05-12T11:34:44.306Z,7.83
2019-05-12T11:37:13.851Z,6.87
2019-05-12T11:39:45.287Z,8.03
2019-05-12T11:42:13.669Z,9.57
2019-05-12T11:44:44.175Z,6.13
2019-05-12T11:47:14.795Z,6.73
2019-05-12T11:49:44.142Z,5.13
2019-05-12T11:52:16.741Z,7.77
2019-05-12T11:54:49.149Z,7.50
2019-05-12T11:57:13.354Z,8.00
2019-05-12T11:59:47.477Z,7.47
2019-05-12T12:02:13.567Z,4.63
2019-05-12T12:04:43.695Z,5.63
2019-05-12T12:07:12.320Z,5.20
2019-05-12T12:09:40.775Z,7.47
2019-05-12T12:12:09.303Z,5.07
2019-05-12T12:14:40.105Z,8.27
2019-05-12T12:17:07.930Z,10.00
2019-05-12T12:19:43.628Z,6.70
2019-05-12T12:22:06.640Z,5.07
2019-05-12T12:24:38.206Z,7.47
2019-05-12T12:27:05.286Z,8.67
2019-05-12T12:29:34.523Z,6.43
2019-05-12T12:32:04.636Z,5.37
2019-05-12T12:34:33.192Z,6.77
2019-05-12T12:37:03.402Z,8.30
2019-05-12T12:39:31.790Z,5.83
2019-05-12T12:42:00.912Z,5.73
2019-05-12T12:44:29.394Z,9.03
2019-05-12T12:47:00.088Z,5.17
2019-05-12T12:49:29.510Z,5.83
2019-05-12T12:51:58.036Z,4.57
2019-05-12T12:54:26.565Z,3.50
2019-05-12T12:56:55.020Z,8.50
2019-05-12T12:59:24.059Z,4.00
2019-05-12T13:01:52.667Z,5.77
2019-05-12T13:04:21.160Z,9.30
2019-05-12T13:06:49.631Z,5.70
2019-05-12T13:09:24.267Z,6.57
2019-05-12T13:11:48.437Z,5.40
2019-05-12T13:14:16.849Z,5.47
2019-05-12T13:16:49.456Z,3.37
2019-05-12T13:19:17.213Z,6.37
2019-05-12T13:21:45.771Z,8.77
2019-05-12T13:24:14.287Z,6.10
2019-05-12T13:26:43.566Z,6.20
2019-05-12T13:29:13.386Z,4.77
2019-05-12T13:31:46.472Z,5.03
2019-05-12T13:34:14.237Z,3.83
2019-05-12T13:36:44.042Z,6.67
2019-05-12T13:39:16.316Z,5.30
2019-05-12T13:41:43.775Z,5.23
2019-05-12T13:44:13.681Z,5.17
2019-05-12T13:46:43.708Z,8.10
2019-05-12T13:49:14.094Z,6.53
2019-05-12T13:51:42.967Z,2.93
2019-05-12T13:54:14.391Z,8.17
2019-05-12T13:56:44.346Z,4.40
2019-05-12T13:59:20.731Z,4.30
2019-05-12T14:01:45.810Z,5.67
2019-05-12T14:04:13.915Z,8.07
2019-05-12T14:06:42.590Z,4.83
2019-05-12T14:09:13.439Z,3.10
2019-05-12T14:11:43.482Z,7.03
2019-05-12T14:14:15.162Z,6.20
2019-05-12T14:16:44.546Z,5.27
2019-05-12T14:19:14.231Z,4.33
2019-05-12T14:21:42.556Z,4.10
2019-05-12T14:24:13.729Z,3.73
2019-05-12T14:26:45.388Z,5.03
2019-05-12T14:29:13.776Z,3.00
2019-05-12T14:31:50.984Z,2.77
2019-05-12T14:34:18.849Z,4.67
2019-05-12T14:36:43.361Z,2.97
2019-05-12T14:39:13.366Z,4.57
2019-05-12T14:41:44.561Z,4.17
2019-05-12T14:44:13.751Z,5.10
2019-05-12T14:46:46.328Z,5.03
2019-05-12T14:49:14.152Z,4.57
2019-05-12T14:51:44.301Z,5.00
2019-05-12T14:54:13.432Z,3.97
2019-05-12T14:56:44.857Z,3.80
2019-05-12T14:59:14.472Z,5.43
2019-05-12T15:01:56.930Z,4.03
2019-05-12T15:04:13.313Z,4.17
2019-05-12T15:06:44.167Z,4.50
2019-05-12T15:09:19.667Z,3.80
2019-05-12T15:11:43.688Z,4.30
2019-05-12T15:14:13.785Z,5.13
2019-05-12T15:16:44.847Z,2.93
2019-05-12T15:19:13.950Z,1.93
2019-05-12T15:21:43.725Z,2.03
2019-05-12T15:24:16.991Z,2.40
2019-05-12T15:26:42.732Z,3.57
2019-05-12T15:29:17.957Z,4.60
2019-05-12T15:31:52.717Z,4.17
2019-05-12T15:34:13.694Z,4.47
2019-05-12T15:36:45.877Z,5.67
2019-05-12T15:39:13.967Z,3.67
2019-05-12T15:41:42.624Z,1.77
2019-05-12T15:44:11.072Z,2.90
2019-05-12T15:46:40.950Z,6.00
2019-05-12T15:49:09.776Z,3.07
2019-05-12T15:51:39.260Z,2.57
2019-05-12T15:54:11.663Z,2.80
2019-05-12T15:56:38.946Z,5.40
2019-05-12T15:59:07.446Z,1.57
2019-05-12T16:01:35.818Z,3.17
2019-05-12T16:04:04.542Z,1.73
2019-05-12T16:06:33.132Z,2.73
2019-05-12T16:09:03.850Z,4.47
2019-05-12T16:11:33.419Z,4.60
2019-05-12T16:14:01.925Z,5.17
2019-05-12T16:16:36.408Z,4.37
2019-05-12T16:19:00.680Z,7.03
2019-05-12T16:21:29.080Z,2.60
2019-05-12T16:24:03.050Z,3.73
2019-05-12T16:26:27.947Z,1.40
2019-05-12T16:29:03.243Z,2.67
2019-05-12T16:31:26.514Z,3.20
2019-05-12T16:34:01.224Z,4.07
2019-05-12T16:36:25.081Z,4.37
2019-05-12T16:38:58.043Z,2.40
2019-05-12T16:41:27.915Z,1.60
2019-05-12T16:43:53.867Z,2.13
2019-05-12T16:46:23.469Z,3.83
2019-05-12T16:48:56.233Z,3.33
2019-05-12T16:51:23.871Z,2.30
2019-05-12T16:53:54.014Z,3.50
2019-05-12T16:56:28.061Z,1.57
2019-05-12T16:58:54.166Z,3.30
2019-05-12T17:01:25.978Z,2.57
2019-05-12T17:03:54.657Z,4.20
2019-05-12T17:06:23.413Z,2.40
2019-05-12T17:08:54.254Z,2.07
2019-05-12T17:11:29.748Z,2.77
2019-05-12T17:13:59.757Z,2.73
2019-05-12T17:16:22.261Z,1.77
2019-05-12T17:18:50.718Z,1.87
2019-05-12T17:21:19.134Z,3.80
2019-05-12T17:23:47.620Z,2.30
2019-05-12T17:26:16.054Z,2.43
2019-05-12T17:28:44.589Z,4.10
2019-05-12T17:31:13.012Z,5.30
2019-05-12T17:33:41.438Z,1.87
2019-05-12T17:36:12.392Z,3.23
2019-05-12T17:38:40.008Z,2.53
2019-05-12T17:41:08.448Z,2.83
2019-05-12T17:43:39.997Z,2.80
2019-05-12T17:46:07.019Z,2.63
2019-05-12T17:48:37.446Z,3.00
2019-05-12T17:51:05.829Z,2.33
2019-05-12T17:53:36.065Z,1.63
2019-05-12T17:56:04.867Z,3.63
2019-05-12T17:58:36.619Z,1.53
2019-05-12T18:01:03.772Z,3.07
2019-05-12T18:03:34.269Z,3.00
2019-05-12T18:06:04.149Z,3.87
2019-05-12T18:08:35.654Z,2.53
2019-05-12T18:11:03.762Z,2.53
2019-05-12T18:13:34.416Z,2.97
2019-05-12T18:16:05.299Z,4.37
2019-05-12T18:18:38.072Z,4.23
2019-05-12T18:21:03.556Z,3.37
2019-05-12T18:23:34.335Z,4.13
2019-05-12T18:26:11.284Z,4.23
2019-05-12T18:28:33.456Z,4.07
2019-05-12T18:31:04.303Z,3.13
2019-05-12T18:33:34.869Z,4.20
2019-05-12T18:36:03.847Z,6.17
2019-05-12T18:38:35.233Z,2.63
2019-05-12T18:41:03.543Z,3.50
2019-05-12T18:43:34.612Z,2.60
2019-05-12T18:46:08.333Z,3.40
2019-05-12T18:48:34.374Z,3.10
2019-05-12T18:51:11.973Z,3.97
2019-05-12T18:53:34.950Z,2.57
2019-05-12T18:56:04.580Z,2.80
2019-05-12T18:58:35.305Z,2.03
2019-05-12T19:01:04.751Z,1.80
2019-05-12T19:03:44.789Z,3.17
2019-05-12T19:06:03.563Z,5.40
2019-05-12T19:08:32.011Z,2.70
2019-05-12T19:11:17.861Z,4.75
2019-05-12T19:13:33.805Z,3.23
2019-05-12T19:16:06.334Z,5.63
2019-05-12T19:18:36.963Z,3.33
2019-05-12T19:21:04.671Z,3.20
2019-05-12T19:23:35.396Z,3.80
2019-05-12T19:26:04.230Z,2.70
2019-05-12T19:28:34.231Z,5.17
2019-05-12T19:31:06.170Z,2.40
2019-05-12T19:33:33.190Z,3.77
2019-05-12T19:36:05.393Z,3.93
2019-05-12T19:38:34.415Z,3.30
2019-05-12T19:41:04.441Z,3.73
2019-05-12T19:43:33.971Z,4.67
2019-05-12T19:46:04.598Z,4.57
2019-05-12T19:48:35.041Z,3.27
2019-05-12T19:51:20.384Z,3.93
2019-05-12T19:53:33.612Z,4.63
2019-05-12T19:56:03.868Z,4.23
2019-05-12T19:58:34.031Z,3.97
2019-05-12T20:01:03.666Z,3.70
2019-05-12T20:03:33.475Z,4.43
2019-05-12T20:06:02.048Z,2.87
2019-05-12T20:08:30.574Z,2.37
2019-05-12T20:10:58.999Z,3.43
2019-05-12T20:13:29.475Z,9.10
2019-05-12T20:15:57.611Z,2.70
2019-05-12T20:18:26.068Z,3.33
2019-05-12T20:20:54.490Z,3.87
2019-05-12T20:23:24.524Z,2.80
2019-05-12T20:25:53.583Z,2.33
2019-05-12T20:28:24.265Z,6.60
2019-05-12T20:31:00.831Z,3.70
2019-05-12T20:33:24.016Z,2.63
2019-05-12T20:35:54.734Z,4.47
2019-05-12T20:38:25.407Z,7.47
2019-05-12T20:40:54.185Z,5.40
2019-05-12T20:43:31.823Z,2.67
2019-05-12T20:45:53.573Z,2.83
2019-05-12T20:48:29.184Z,4.33
2019-05-12T20:50:52.291Z,4.20
2019-05-12T20:53:24.787Z,3.60
2019-05-12T20:55:51.159Z,3.50
2019-05-12T20:58:19.577Z,3.30
2019-05-12T21:00:50.174Z,2.87
2019-05-12T21:03:18.383Z,3.83
2019-05-12T21:05:50.596Z,4.03
2019-05-12T21:08:17.147Z,5.10
2019-05-12T21:10:45.585Z,3.60
2019-05-12T21:13:14.674Z,6.47
2019-05-12T21:15:45.824Z,2.90
2019-05-12T21:18:14.732Z,4.00
2019-05-12T21:20:46.428Z,2.50
2019-05-12T21:23:13.635Z,4.63
2019-05-12T21:25:43.891Z,4.53
2019-05-12T21:28:14.687Z,3.60
2019-05-12T21:30:47.954Z,2.47
2019-05-12T21:33:14.760Z,3.37
2019-05-12T21:35:45.764Z,4.67
2019-05-12T21:38:13.423Z,3.17
2019-05-12T21:40:44.205Z,2.50
2019-05-12T21:43:13.499Z,4.43
2019-05-12T21:45:42.208Z,5.70
2019-05-12T21:48:14.994Z,2.37
2019-05-12T21:50:44.454Z,2.50
2019-05-12T21:53:17.657Z,4.67
2019-05-12T21:55:44.375Z,2.23
2019-05-12T21:58:15.270Z,2.80
2019-05-12T22:00:50.482Z,2.60
2019-05-12T22:03:17.984Z,5.30
2019-05-12T22:05:51.622Z,5.23
2019-05-12T22:08:21.994Z,4.13
2019-05-12T22:10:48.385Z,1.97
2019-05-12T22:13:18.140Z,2.80
2019-05-12T22:15:51.388Z,3.10
2019-05-12T22:18:19.289Z,3.03
2019-05-12T22:20:52.222Z,3.27
2019-05-12T22:23:17.626Z,4.90
2019-05-12T22:25:49.037Z,3.83
2019-05-12T22:28:16.399Z,4.27
2019-05-12T22:30:44.834Z,2.97
2019-05-12T22:33:14.787Z,3.70
2019-05-12T22:35:44.455Z,2.13
2019-05-12T22:38:16.589Z,3.77
2019-05-12T22:40:43.322Z,1.80
2019-05-12T22:43:14.056Z,2.50
2019-05-12T22:45:54.735Z,2.30
2019-05-12T22:48:40.321Z,2.27
2019-05-12T22:51:23.765Z,4.30
2019-05-12T22:57:24.219Z,3.43
2019-05-12T22:59:32.055Z,3.27
2019-05-12T23:04:52.021Z,2.17
2019-05-12T23:07:27.804Z,3.17
2019-05-12T23:09:50.725Z,5.83
2019-05-12T23:12:20.257Z,4.30
2019-05-12T23:14:56.494Z,6.17
2019-05-12T23:17:19.042Z,2.40
2019-05-12T23:19:51.385Z,2.10
2019-05-12T23:22:17.993Z,6.33
2019-05-12T23:24:46.414Z,3.83
2019-05-12T23:27:18.830Z,3.53
2019-05-12T23:29:45.210Z,2.63
2019-05-12T23:32:15.044Z,5.60
2019-05-12T23:34:47.114Z,2.60
2019-05-12T23:37:14.116Z,3.90
2019-05-12T23:39:44.262Z,2.33
2019-05-12T23:42:13.617Z,2.67
2019-05-12T23:44:44.182Z,3.20
2019-05-12T23:47:12.503Z,2.30
2019-05-12T23:49:41.103Z,3.43
2019-05-12T23:52:09.577Z,2.73
2019-05-12T23:54:38.223Z,4.20
2019-05-12T23:57:06.665Z,3.67
2019-05-12T23:59:35.163Z,2.50
